Time;durP1;ratioP1;P1;durP2;ratioP2;P2;SDS_P1;SDS_P2;PMS_P1;PMS_P2;Temp;Humidity;BMP_temperature;BMP_pressure;BME280_temperature;BME280_humidity;BME280_pressure;Samples;Min_cycle;Max_cycle;Signal;HPM_P1;HPM_P2
2021/11/22 00:01:54;;;;;;;61.75;31.48;;;;;;;6.01;100.00;97425.84;5089223;28;20146;-74
2021/11/22 00:04:22;;;;;;;64.25;30.65;;;;;;;5.91;100.00;97426.72;5089390;28;20020;-76
2021/11/22 00:06:47;;;;;;;59.65;29.75;;;;;;;5.94;100.00;97428.88;5089383;28;20023;-75
2021/11/22 00:09:13;;;;;;;59.78;29.95;;;;;;;6.07;100.00;97422.84;5089502;28;20024;-76
2021/11/22 00:11:41;;;;;;;61.00;29.67;;;;;;;6.11;100.00;97423.88;5089515;28;20488;-79
2021/11/22 00:14:07;;;;;;;57.90;29.17;;;;;;;6.09;100.00;97425.25;5090943;28;20054;-76
2021/11/22 00:16:33;;;;;;;64.45;31.08;;;;;;;6.14;100.00;97419.81;5092250;28;20524;-74
2021/11/22 00:19:02;;;;;;;61.95;31.08;;;;;;;6.13;100.00;97427.13;5096249;28;20491;-80
2021/11/22 00:21:27;;;;;;;54.10;28.55;;;;;;;6.17;100.00;97430.91;5099706;28;20027;-76
2021/11/22 00:23:53;;;;;;;54.80;28.45;;;;;;;6.20;100.00;97424.91;5094194;28;20036;-73
2021/11/22 00:26:19;;;;;;;59.65;28.70;;;;;;;6.20;100.00;97427.63;5087298;28;20032;-76
2021/11/22 00:28:44;;;;;;;56.90;29.10;;;;;;;6.18;100.00;97431.72;5075758;28;20024;-74
2021/11/22 00:31:10;;;;;;;58.22;28.92;;;;;;;6.18;100.00;97429.00;5076860;28;20020;-74
2021/11/22 00:33:38;;;;;;;55.00;27.55;;;;;;;6.21;100.00;97429.25;5093089;28;20472;-73
2021/11/22 00:36:06;;;;;;;59.05;28.65;;;;;;;6.28;100.00;97432.47;5093118;28;20028;-76
2021/11/22 00:38:31;;;;;;;57.78;29.42;;;;;;;6.24;100.00;97436.84;5092719;28;20028;-75
2021/11/22 00:40:57;;;;;;;58.83;30.92;;;;;;;6.28;100.00;97437.91;5093403;28;20024;-75
2021/11/22 00:43:23;;;;;;;59.25;30.77;;;;;;;6.23;100.00;97435.25;5088443;28;20024;-76
2021/11/22 00:45:52;;;;;;;63.63;31.85;;;;;;;6.32;100.00;97438.97;5086349;28;20418;-74
2021/11/22 00:48:20;;;;;;;72.40;34.40;;;;;;;6.38;100.00;97448.72;5094229;28;20024;-75
2021/11/22 00:50:47;;;;;;;57.92;30.25;;;;;;;6.33;100.00;97450.63;5095855;28;20042;-79
2021/11/22 00:53:12;;;;;;;56.70;28.33;;;;;;;6.40;100.00;97449.25;5098943;28;20052;-74
2021/11/22 00:55:38;;;;;;;58.88;29.75;;;;;;;6.46;100.00;97450.84;5099433;28;20100;-78
2021/11/22 00:58:03;;;;;;;62.88;30.27;;;;;;;6.44;100.00;97446.78;5100131;28;20040;-74
2021/11/22 01:00:29;;;;;;;54.15;27.60;;;;;;;6.39;100.00;97444.88;5094480;28;20024;-73
2021/11/22 01:02:57;;;;;;;55.55;28.13;;;;;;;6.47;100.00;97452.47;5094569;28;20028;-75
2021/11/22 01:05:22;;;;;;;52.88;27.80;;;;;;;6.51;100.00;97446.47;5094348;28;20024;-74
2021/11/22 01:07:48;;;;;;;52.95;27.55;;;;;;;6.48;100.00;97447.84;5091693;28;20089;-73
2021/11/22 01:10:15;;;;;;;64.53;28.77;;;;;;;6.41;100.00;97459.03;5093463;28;20141;-75
2021/11/22 01:12:40;;;;;;;58.53;28.75;;;;;;;6.33;100.00;97451.44;5093596;28;20085;-78
2021/11/22 01:15:10;;;;;;;55.83;28.05;;;;;;;6.25;100.00;97452.06;5093270;28;20044;-79
2021/11/22 01:17:38;;;;;;;58.75;28.02;;;;;;;6.18;100.00;97446.09;5094110;28;20116;-80
2021/11/22 01:20:10;;;;;;;58.40;29.27;;;;;;;6.05;100.00;97454.84;5098446;28;20012;-76
2021/11/22 01:22:37;;;;;;;56.38;28.95;;;;;;;6.11;100.00;97453.75;5094151;28;20024;-74
2021/11/22 01:25:07;;;;;;;54.45;28.75;;;;;;;6.17;100.00;97447.19;5090910;28;20020;-75
2021/11/22 01:27:33;;;;;;;55.85;27.30;;;;;;;6.23;100.00;97454.25;5092676;28;20024;-73
2021/11/22 01:29:58;;;;;;;56.80;29.35;;;;;;;6.18;100.00;97454.25;5092672;28;20478;-73
2021/11/22 01:32:24;;;;;;;53.97;27.73;;;;;;;6.18;100.00;97448.00;5092795;28;20602;-75
2021/11/22 01:34:49;;;;;;;54.47;27.45;;;;;;;6.18;100.00;97446.09;5092093;28;20031;-74
2021/11/22 01:37:15;;;;;;;57.35;28.40;;;;;;;6.15;100.00;97446.66;5092924;28;20028;-74
2021/11/22 01:39:40;;;;;;;55.55;27.30;;;;;;;6.16;100.00;97458.34;5092843;28;20024;-74
2021/11/22 01:42:06;;;;;;;60.30;29.17;;;;;;;6.13;100.00;97459.72;5092834;28;20034;-73
2021/11/22 01:44:31;;;;;;;50.17;26.30;;;;;;;6.09;100.00;97461.34;5092099;28;20032;-75
2021/11/22 01:46:57;;;;;;;49.92;25.90;;;;;;;6.14;100.00;97458.59;5091987;28;20036;-74
2021/11/22 01:49:22;;;;;;;54.95;27.40;;;;;;;6.14;100.00;97461.31;5092880;28;20487;-74
2021/11/22 01:51:51;;;;;;;52.78;27.63;;;;;;;6.17;100.00;97447.19;5092671;28;20459;-74
2021/11/22 01:54:16;;;;;;;55.38;26.17;;;;;;;6.11;100.00;97448.31;5092441;28;20119;-74
2021/11/22 01:56:45;;;;;;;53.17;26.48;;;;;;;6.14;100.00;97468.69;5092879;28;20458;-73
2021/11/22 01:59:13;;;;;;;53.20;26.67;;;;;;;6.13;100.00;97465.16;5092813;28;20051;-76
2021/11/22 02:01:39;;;;;;;51.17;27.95;;;;;;;6.09;100.00;97468.69;5092207;28;20032;-75
2021/11/22 02:04:04;;;;;;;52.20;26.45;;;;;;;6.06;100.00;97461.91;5092888;28;20028;-75
2021/11/22 02:06:30;;;;;;;58.90;28.17;;;;;;;6.04;100.00;97460.56;5093492;28;20426;-75
2021/11/22 02:08:55;;;;;;;51.28;26.52;;;;;;;6.05;100.00;97460.28;5093936;28;20032;-74
2021/11/22 02:11:21;;;;;;;52.72;25.98;;;;;;;6.04;100.00;97455.16;5094740;28;20027;-75
2021/11/22 02:13:49;;;;;;;46.88;25.90;;;;;;;6.12;100.00;97462.69;5096234;28;20028;-75
2021/11/22 02:16:14;;;;;;;47.20;25.70;;;;;;;6.12;100.00;97455.38;5095135;28;20020;-76
2021/11/22 02:18:43;;;;;;;46.53;24.73;;;;;;;6.16;100.00;97455.63;5095827;28;20043;-74
2021/11/22 02:21:09;;;;;;;47.80;25.15;;;;;;;6.13;100.00;97457.00;5093169;28;20042;-74
2021/11/22 02:23:35;;;;;;;44.53;23.55;;;;;;;6.06;100.00;97451.06;5093075;28;20032;-73
2021/11/22 02:26:00;;;;;;;45.58;24.35;;;;;;;6.05;100.00;97456.75;5096172;28;20027;-76
2021/11/22 02:28:26;;;;;;;50.75;23.70;;;;;;;6.06;100.00;97451.06;5097528;28;20028;-75
2021/11/22 02:30:53;;;;;;;48.33;25.63;;;;;;;6.03;100.00;97457.03;5093372;28;20017;-75
2021/11/22 02:33:24;;;;;;;50.53;24.88;;;;;;;6.08;100.00;97453.47;5091770;28;20035;-74
2021/11/22 02:35:57;;;;;;;51.15;25.13;;;;;;;6.06;100.00;97452.97;5091210;28;20055;-74
2021/11/22 02:38:28;;;;;;;51.53;24.98;;;;;;;6.06;100.00;97453.78;5091911;28;20122;-74
2021/11/22 02:40:54;;;;;;;46.63;25.40;;;;;;;6.05;100.00;97445.88;5090368;28;20451;-73
2021/11/22 02:43:20;;;;;;;47.50;26.63;;;;;;;5.99;100.00;97450.53;5091546;28;20060;-74
2021/11/22 02:45:49;;;;;;;47.53;25.20;;;;;;;5.98;100.00;97443.50;5091583;28;20024;-75
2021/11/22 02:48:18;;;;;;;50.20;26.52;;;;;;;6.02;100.00;97444.56;5091916;28;20533;-74
2021/11/22 02:50:45;;;;;;;49.25;25.73;;;;;;;5.98;100.00;97434.53;5091530;28;20043;-74
2021/11/22 02:53:10;;;;;;;47.75;24.23;;;;;;;5.99;100.00;97434.25;5091428;28;20389;-75
2021/11/22 02:55:37;;;;;;;51.08;26.23;;;;;;;5.95;100.00;97437.81;5091245;28;20044;-72
2021/11/22 02:58:03;;;;;;;44.05;22.05;;;;;;;5.95;100.00;97444.06;5090321;28;20040;-77
2021/11/22 03:00:35;;;;;;;50.28;24.60;;;;;;;5.89;100.00;97445.97;5091497;28;20059;-82
2021/11/22 03:03:01;;;;;;;40.20;22.77;;;;;;;5.90;100.00;97441.34;5091391;28;20029;-75
2021/11/22 03:05:26;;;;;;;51.47;24.08;;;;;;;5.95;100.00;97437.81;5091386;28;20039;-76
2021/11/22 03:07:55;;;;;;;48.55;24.75;;;;;;;5.80;100.00;97435.94;5091270;28;20028;-73
2021/11/22 03:10:26;;;;;;;45.38;24.70;;;;;;;5.78;100.00;97427.25;5091545;28;20031;-74
2021/11/22 03:12:52;;;;;;;44.55;24.48;;;;;;;5.76;100.00;97438.38;5091054;28;20116;-73
2021/11/22 03:15:20;;;;;;;50.30;24.77;;;;;;;5.75;100.00;97438.69;5091287;28;20027;-78
2021/11/22 03:17:46;;;;;;;44.83;22.75;;;;;;;5.75;100.00;97436.78;5091284;28;20126;-73
2021/11/22 03:20:14;;;;;;;51.85;24.75;;;;;;;5.68;100.00;97447.09;5090880;28;20075;-76
2021/11/22 03:22:44;;;;;;;48.17;23.67;;;;;;;5.63;100.00;97444.41;5091347;28;20024;-73
2021/11/22 03:25:15;;;;;;;47.47;23.83;;;;;;;5.61;100.00;97443.03;5090753;28;20122;-73
2021/11/22 03:27:42;;;;;;;46.38;23.95;;;;;;;5.57;100.00;97442.00;5091212;28;20157;-74
2021/11/22 03:30:09;;;;;;;43.63;23.92;;;;;;;5.63;100.00;97447.13;5089474;28;20396;-74
2021/11/22 03:32:34;;;;;;;47.67;23.38;;;;;;;5.68;100.00;97446.28;5091015;28;20028;-74
2021/11/22 03:35:01;;;;;;;52.50;24.38;;;;;;;5.68;100.00;97449.00;5090754;28;20047;-74
2021/11/22 03:37:27;;;;;;;47.40;24.95;;;;;;;5.60;100.00;97441.44;5089378;28;20067;-73
2021/11/22 03:39:52;;;;;;;50.05;25.38;;;;;;;5.68;100.00;97451.72;5090994;28;20047;-74
2021/11/22 03:42:20;;;;;;;45.92;23.73;;;;;;;5.70;100.00;97449.56;5090800;28;20025;-74
2021/11/22 03:44:45;;;;;;;47.83;23.95;;;;;;;5.79;100.00;97450.59;5091892;28;20072;-77
2021/11/22 03:47:14;;;;;;;50.72;24.17;;;;;;;5.83;100.00;97460.63;5096710;28;20032;-78
2021/11/22 03:49:40;;;;;;;41.97;22.33;;;;;;;5.86;100.00;97464.69;5100897;28;20028;-74
2021/11/22 03:52:07;;;;;;;43.72;22.75;;;;;;;5.90;100.00;97463.06;5095609;28;20051;-74
2021/11/22 03:54:33;;;;;;;44.72;23.55;;;;;;;5.82;100.00;97452.75;5094356;28;20059;-74
2021/11/22 03:56:58;;;;;;;43.50;23.20;;;;;;;5.82;100.00;97452.75;5093998;28;20069;-74
2021/11/22 03:59:24;;;;;;;42.78;23.15;;;;;;;5.90;100.00;97453.03;5096379;28;20039;-74
2021/11/22 04:01:49;;;;;;;42.92;22.67;;;;;;;5.96;100.00;97461.13;5094504;28;20080;-73
2021/11/22 04:04:15;;;;;;;46.17;23.13;;;;;;;5.97;100.00;97451.91;5094963;28;20031;-74
2021/11/22 04:06:41;;;;;;;46.25;22.75;;;;;;;5.97;100.00;97457.34;5094779;28;20030;-74
2021/11/22 04:09:09;;;;;;;46.63;22.90;;;;;;;5.94;100.00;97453.28;5093408;28;20066;-74
2021/11/22 04:11:35;;;;;;;44.92;24.10;;;;;;;6.03;100.00;97459.75;5094564;28;20016;-78
2021/11/22 04:14:02;;;;;;;43.78;23.00;;;;;;;6.01;100.00;97453.81;5094635;28;20028;-74
2021/11/22 04:16:28;;;;;;;48.20;23.75;;;;;;;6.11;100.00;97461.88;5093264;28;20020;-77
2021/11/22 04:18:53;;;;;;;42.47;20.98;;;;;;;6.18;100.00;97465.09;5095749;28;20061;-74
2021/11/22 04:21:22;;;;;;;45.72;22.50;;;;;;;6.34;100.00;97463.94;5096916;28;20028;-74
2021/11/22 04:23:47;;;;;;;42.70;22.42;;;;;;;6.42;100.00;97460.63;5096122;28;20425;-74
2021/11/22 04:26:14;;;;;;;43.08;23.10;;;;;;;6.47;100.00;97457.06;5097431;28;20020;-74
2021/11/22 04:28:39;;;;;;;40.80;20.33;;;;;;;6.37;100.00;97452.53;5095057;28;20081;-74
2021/11/22 04:31:05;;;;;;;40.05;21.92;;;;;;;6.38;100.00;97456.88;5095242;28;20111;-74
2021/11/22 04:33:30;;;;;;;43.58;21.40;;;;;;;6.45;100.00;97462.78;5094600;28;20372;-74
2021/11/22 04:35:56;;;;;;;44.50;22.73;;;;;;;6.46;100.00;97461.69;5094886;28;20016;-74
2021/11/22 04:38:21;;;;;;;41.80;21.10;;;;;;;6.45;100.00;97465.50;5095517;28;20039;-74
2021/11/22 04:40:47;;;;;;;46.33;22.98;;;;;;;6.43;100.00;97467.69;5096139;28;20590;-74
2021/11/22 04:43:12;;;;;;;38.58;20.80;;;;;;;6.48;100.00;97472.31;5095971;28;20028;-73
2021/11/22 04:45:38;;;;;;;39.15;20.63;;;;;;;6.43;100.00;97477.75;5083521;28;20090;-75
2021/11/22 04:48:06;;;;;;;38.78;21.95;;;;;;;6.32;100.00;97487.06;5076336;28;20028;-72
2021/11/22 04:50:32;;;;;;;38.50;20.95;;;;;;;6.31;100.00;97483.50;5076559;28;20434;-73
2021/11/22 04:52:59;;;;;;;44.20;21.73;;;;;;;6.26;100.00;97486.28;5080151;28;20051;-79
2021/11/22 04:55:25;;;;;;;36.50;20.67;;;;;;;6.26;100.00;97486.28;5077800;28;20090;-76
2021/11/22 04:57:51;;;;;;;42.80;21.58;;;;;;;6.27;100.00;97490.59;5072208;28;20027;-74
2021/11/22 05:00:19;;;;;;;42.05;20.52;;;;;;;6.25;100.00;97478.38;5073699;28;20108;-73
2021/11/22 05:02:47;;;;;;;44.55;21.17;;;;;;;6.42;100.00;97490.50;5073287;28;20115;-73
2021/11/22 05:05:15;;;;;;;39.63;20.73;;;;;;;6.39;100.00;97495.72;5073054;28;20040;-74
2021/11/22 05:07:41;;;;;;;42.78;21.48;;;;;;;6.34;100.00;97493.00;5073361;28;20031;-74
2021/11/22 05:10:07;;;;;;;41.35;21.40;;;;;;;6.40;100.00;97494.59;5071890;28;20024;-74
2021/11/22 05:12:33;;;;;;;42.05;21.77;;;;;;;6.44;100.00;97493.78;5074041;28;20059;-74
2021/11/22 05:14:59;;;;;;;41.00;21.63;;;;;;;6.51;100.00;97493.47;5079682;28;20037;-74
2021/11/22 05:17:24;;;;;;;47.80;24.48;;;;;;;6.59;100.00;97497.47;5075273;28;20029;-73
2021/11/22 05:19:51;;;;;;;44.67;23.85;;;;;;;6.55;100.00;97497.22;5074659;28;20031;-74
2021/11/22 05:22:21;;;;;;;41.85;22.00;;;;;;;6.59;100.00;97501.00;5072963;28;20107;-75
2021/11/22 05:24:51;;;;;;;44.03;22.85;;;;;;;6.62;100.00;97502.34;5072920;28;20412;-74
2021/11/22 05:27:22;;;;;;;40.90;22.33;;;;;;;6.61;100.00;97506.19;5073031;28;20032;-75
2021/11/22 05:29:49;;;;;;;43.85;22.60;;;;;;;6.58;100.00;97501.31;5072940;28;20034;-74
2021/11/22 05:32:16;;;;;;;47.22;22.63;;;;;;;6.54;100.00;97505.66;5072240;28;20491;-75
2021/11/22 05:34:42;;;;;;;46.30;22.88;;;;;;;6.59;100.00;97508.34;5072685;28;20032;-74
2021/11/22 05:37:08;;;;;;;46.47;23.77;;;;;;;6.55;100.00;97508.09;5072789;28;20104;-75
2021/11/22 05:39:33;;;;;;;48.00;25.15;;;;;;;6.48;100.00;97507.63;5072796;28;20120;-75
2021/11/22 05:41:59;;;;;;;47.58;23.75;;;;;;;6.39;100.00;97504.66;5072419;28;20035;-75
2021/11/22 05:44:24;;;;;;;50.92;24.13;;;;;;;6.46;100.00;97518.75;5072029;28;20037;-74
2021/11/22 05:46:50;;;;;;;45.47;23.38;;;;;;;6.42;100.00;97517.66;5072528;28;20039;-78
2021/11/22 05:49:15;;;;;;;45.63;23.02;;;;;;;6.51;100.00;97517.09;5072038;28;20047;-74
2021/11/22 05:51:44;;;;;;;46.78;23.23;;;;;;;6.46;100.00;97521.47;5072272;28;20028;-74
2021/11/22 05:54:09;;;;;;;45.58;24.20;;;;;;;6.41;100.00;97517.97;5072312;28;20043;-74
2021/11/22 05:56:34;;;;;;;46.20;23.15;;;;;;;6.45;100.00;97519.03;5072942;28;20028;-74
2021/11/22 05:59:00;;;;;;;48.63;23.27;;;;;;;6.51;100.00;97523.34;5072527;28;20091;-75
2021/11/22 06:01:25;;;;;;;46.03;23.55;;;;;;;6.53;100.00;97521.16;5072744;28;20111;-73
2021/11/22 06:03:51;;;;;;;39.80;20.67;;;;;;;6.54;100.00;97517.34;5072543;28;20431;-75
2021/11/22 06:06:16;;;;;;;47.45;22.90;;;;;;;6.54;100.00;97522.78;5072217;28;20025;-77
2021/11/22 06:08:43;;;;;;;46.45;22.95;;;;;;;6.45;100.00;97525.25;5077770;28;20388;-78
2021/11/22 06:11:08;;;;;;;49.45;23.08;;;;;;;6.55;100.00;97529.81;5087104;28;20081;-76
2021/11/22 06:13:34;;;;;;;48.50;24.20;;;;;;;6.56;100.00;97522.50;5088383;28;20036;-75
2021/11/22 06:15:59;;;;;;;42.60;22.80;;;;;;;6.52;100.00;97535.00;5091327;28;20077;-73
2021/11/22 06:18:25;;;;;;;42.95;22.42;;;;;;;6.54;100.00;97541.00;5092316;28;20024;-74
2021/11/22 06:20:50;;;;;;;43.47;20.83;;;;;;;6.46;100.00;97542.38;5092340;28;20032;-74
2021/11/22 06:23:16;;;;;;;41.70;20.63;;;;;;;6.35;100.00;97551.69;5091595;28;20032;-75
2021/11/22 06:25:44;;;;;;;39.10;20.58;;;;;;;6.38;100.00;97565.50;5089266;28;20035;-73
2021/11/22 06:28:10;;;;;;;42.42;22.27;;;;;;;6.41;100.00;97556.00;5094356;28;20012;-84
2021/11/22 06:30:36;;;;;;;40.45;21.65;;;;;;;6.40;100.00;97565.22;5097152;28;20455;-76
2021/11/22 06:33:02;;;;;;;44.15;21.98;;;;;;;6.57;100.00;97559.44;5098286;28;20086;-86
2021/11/22 06:35:28;;;;;;;40.58;22.35;;;;;;;6.50;100.00;97564.38;5102314;28;20039;-88
2021/11/22 06:37:53;;;;;;;42.92;22.17;;;;;;;6.48;100.00;97573.59;5107767;28;20020;-89
2021/11/22 06:40:19;;;;;;;44.97;22.92;;;;;;;6.33;100.00;97575.56;5104712;28;20031;-75
2021/11/22 06:42:45;;;;;;;46.88;23.58;;;;;;;6.36;100.00;97581.25;5107101;28;20042;-88
2021/11/22 06:45:10;;;;;;;46.05;24.95;;;;;;;6.30;100.00;97571.50;5109488;28;20035;-90
2021/11/22 06:47:36;;;;;;;46.25;23.13;;;;;;;6.32;100.00;97573.97;5109072;28;20034;-89
2021/11/22 06:50:04;;;;;;;47.88;23.25;;;;;;;6.36;100.00;97586.69;5111758;28;20036;-90
2021/11/22 06:52:29;;;;;;;48.20;25.60;;;;;;;6.32;100.00;97580.22;5107162;28;20108;-88
2021/11/22 06:54:56;;;;;;;56.67;27.20;;;;;;;6.27;100.00;97585.63;5103553;28;20059;-87
2021/11/22 06:57:22;;;;;;;53.08;25.50;;;;;;;6.34;100.00;97594.31;5106355;28;20042;-85
2021/11/22 06:59:48;;;;;;;48.70;26.92;;;;;;;6.39;100.00;97602.44;5111072;28;20012;-81
2021/11/22 07:02:15;;;;;;;54.38;25.83;;;;;;;6.42;100.00;97601.09;5113036;28;20041;-84
2021/11/22 07:04:41;;;;;;;60.13;26.35;;;;;;;6.51;100.00;97604.84;5112281;28;20024;-92
2021/11/22 07:07:08;;;;;;;53.22;24.73;;;;;;;6.54;100.00;97609.72;5114300;28;20016;-87
2021/11/22 07:09:35;;;;;;;53.97;25.80;;;;;;;6.36;100.00;97613.03;5105449;28;20035;-89
2021/11/22 07:12:39;;;;;;;53.95;26.85;;;;;;;6.45;100.00;97612.19;5100357;28;20031;-82
2021/11/22 07:15:05;;;;;;;52.72;27.00;;;;;;;6.21;100.00;97592.19;5085372;28;20036;-88
2021/11/22 07:17:31;;;;;;;52.78;25.45;;;;;;;6.34;100.00;97599.75;5097325;28;20537;-89
2021/11/22 07:19:57;;;;;;;55.17;24.80;;;;;;;6.46;100.00;97613.81;5098294;28;20020;-88
2021/11/22 07:22:22;;;;;;;53.95;25.17;;;;;;;6.07;100.00;97588.44;5099701;28;20027;-90
2021/11/22 07:24:48;;;;;;;56.47;26.13;;;;;;;6.11;100.00;97553.41;5102853;28;20013;-92
2021/11/22 07:27:14;;;;;;;54.97;26.13;;;;;;;6.18;100.00;97595.44;5101414;28;20395;-86
2021/11/22 07:29:43;;;;;;;48.35;26.52;;;;;;;6.46;100.00;97611.09;5104119;28;20028;-92
2021/11/22 07:32:10;;;;;;;52.30;25.77;;;;;;;6.54;100.00;97617.06;5099620;28;20023;-91
2021/11/22 07:34:36;;;;;;;51.70;24.25;;;;;;;6.76;100.00;97615.63;5101924;28;20031;-89
2021/11/22 07:37:02;;;;;;;52.83;25.90;;;;;;;6.69;100.00;97623.25;5101440;28;20392;-88
2021/11/22 07:39:28;;;;;;;52.35;26.52;;;;;;;6.76;100.00;97628.38;5104303;28;20387;-87
2021/11/22 07:41:56;;;;;;;52.78;25.02;;;;;;;6.76;100.00;97628.38;5103449;28;20047;-90
2021/11/22 07:44:23;;;;;;;53.75;24.58;;;;;;;6.82;100.00;97629.97;5105635;28;20024;-90
2021/11/22 07:46:51;;;;;;;54.03;26.15;;;;;;;6.83;100.00;97629.69;5105925;28;20036;-89
2021/11/22 07:49:17;;;;;;;53.80;23.60;;;;;;;6.81;100.00;97618.28;5098768;28;20024;-91
2021/11/22 07:51:42;;;;;;;49.80;25.25;;;;;;;6.93;100.00;97632.38;5111023;28;20119;-88
2021/11/22 07:54:08;;;;;;;53.33;26.95;;;;;;;6.92;100.00;97648.97;5117129;28;20062;-87
2021/11/22 07:56:33;;;;;;;46.80;24.02;;;;;;;6.91;100.00;97641.91;5113207;28;20049;-88
2021/11/22 07:58:58;;;;;;;54.15;26.10;;;;;;;6.69;100.00;97655.03;5114218;28;20028;-89
2021/11/22 08:01:25;;;;;;;51.03;26.25;;;;;;;6.83;100.00;97664.22;5105647;28;20115;-88
2021/11/22 08:03:51;;;;;;;55.28;28.17;;;;;;;6.85;100.00;97662.03;5106013;28;20065;-83
2021/11/22 08:06:17;;;;;;;51.35;26.30;;;;;;;6.82;100.00;97665.31;5103868;28;20024;-88
2021/11/22 08:08:46;;;;;;;55.85;27.08;;;;;;;6.83;100.00;97662.31;5103279;28;20028;-88
2021/11/22 08:13:41;;;;;;;48.13;25.45;;;;;;;6.88;100.00;97673.19;5106507;28;20046;-90
2021/11/22 08:16:08;;;;;;;49.70;23.98;;;;;;;6.94;100.00;97673.97;5104974;28;20051;-90
2021/11/22 08:18:35;;;;;;;52.03;26.55;;;;;;;7.12;100.00;97669.78;5105269;28;20024;-88
2021/11/22 08:21:02;;;;;;;52.10;27.15;;;;;;;7.19;100.00;97664.88;5114397;28;20020;-85
2021/11/22 08:23:28;;;;;;;56.60;23.92;;;;;;;7.19;100.00;97670.31;5110526;28;20032;-90
2021/11/22 08:25:54;;;;;;;51.70;25.30;;;;;;;7.22;100.00;97665.13;5104649;28;20024;-85
2021/11/22 08:28:21;;;;;;;49.85;24.05;;;;;;;7.27;100.00;97678.69;5104945;28;20036;-80
2021/11/22 08:30:49;;;;;;;46.58;23.20;;;;;;;7.34;100.00;97673.75;5108957;28;20052;-75
2021/11/22 08:33:17;;;;;;;44.53;22.30;;;;;;;7.49;100.00;97681.00;5117144;28;20030;-84
2021/11/22 08:35:47;;;;;;;43.47;23.90;;;;;;;7.46;100.00;97689.72;5126431;28;20024;-86
2021/11/22 08:38:13;;;;;;;49.85;24.15;;;;;;;7.44;100.00;97687.28;5125524;27;20077;-90
2021/11/22 08:40:42;;;;;;;48.28;23.23;;;;;;;7.31;100.00;97687.91;5125689;28;20048;-88
2021/11/22 08:43:14;;;;;;;46.17;23.58;;;;;;;7.26;100.00;97704.28;5128025;27;20039;-89
2021/11/22 08:45:40;;;;;;;48.13;23.45;;;;;;;7.08;100.00;97702.16;5119093;28;20399;-88
2021/11/22 08:48:07;;;;;;;45.10;22.27;;;;;;;7.09;100.00;97705.69;5104150;28;20028;-88
2021/11/22 08:50:36;;;;;;;53.00;25.02;;;;;;;7.10;100.00;97700.00;5108395;28;20058;-77
2021/11/22 08:53:02;;;;;;;53.38;24.70;;;;;;;7.08;100.00;97707.59;5105684;28;20044;-90
2021/11/22 08:55:28;;;;;;;49.47;23.45;;;;;;;7.19;100.00;97716.53;5103187;28;20047;-93
2021/11/22 08:57:54;;;;;;;45.63;23.30;;;;;;;7.19;100.00;97722.78;5104830;28;20012;-88
2021/11/22 09:00:30;;;;;;;50.50;24.58;;;;;;;7.18;100.00;97717.63;5107019;28;20035;-90
2021/11/22 09:02:56;;;;;;;47.10;21.30;;;;;;;7.25;100.00;97723.56;5106718;28;20027;-89
2021/11/22 09:05:22;;;;;;;50.75;23.02;;;;;;;7.27;100.00;97724.91;5107076;28;20103;-84
2021/11/22 09:07:48;;;;;;;49.83;22.88;;;;;;;7.13;100.00;97737.50;5108784;28;20000;-88
2021/11/22 09:10:14;;;;;;;49.03;24.88;;;;;;;7.10;100.00;97738.06;5107495;28;20035;-91
2021/11/22 09:12:40;;;;;;;47.85;23.13;;;;;;;7.11;100.00;97750.56;5087243;28;20092;-87
2021/11/22 09:15:06;;;;;;;46.80;22.83;;;;;;;7.15;100.00;97745.38;5080911;28;20067;-88
2021/11/22 09:17:33;;;;;;;48.70;24.60;;;;;;;6.94;100.00;97760.97;5131599;28;20086;-89
2021/11/22 09:19:58;;;;;;;45.95;23.23;;;;;;;6.84;100.00;97755.56;5135263;28;20011;-82
2021/11/22 09:22:24;;;;;;;53.28;25.27;;;;;;;6.86;100.00;97742.50;5133125;28;20076;-90
2021/11/22 09:24:49;;;;;;;48.53;23.33;;;;;;;6.98;100.00;97748.44;5121937;28;20063;-90
2021/11/22 09:27:15;;;;;;;43.35;22.85;;;;;;;7.09;100.00;97757.38;5117914;28;20024;-91
2021/11/22 09:29:41;;;;;;;48.95;23.70;;;;;;;7.08;100.00;97767.44;5110188;28;20024;-83
2021/11/22 09:32:07;;;;;;;56.25;24.42;;;;;;;7.14;100.00;97762.81;5114254;28;20024;-92
2021/11/22 09:34:33;;;;;;;47.47;24.80;;;;;;;7.19;100.00;97760.88;5106202;28;20028;-84
2021/11/22 09:36:59;;;;;;;48.05;24.73;;;;;;;7.17;100.00;97760.34;5116203;28;20012;-82
2021/11/22 09:39:25;;;;;;;51.13;25.55;;;;;;;7.12;100.00;97765.78;5117577;28;20016;-83
2021/11/22 09:41:53;;;;;;;48.42;22.35;;;;;;;6.98;100.00;97772.91;5118626;28;20054;-83
2021/11/22 09:44:21;;;;;;;50.03;24.63;;;;;;;6.68;100.00;97781.13;5116519;28;20028;-82
2021/11/22 09:46:47;;;;;;;44.42;22.75;;;;;;;6.42;100.00;97781.16;5115091;28;20059;-89
2021/11/22 09:49:13;;;;;;;51.88;24.27;;;;;;;6.34;100.00;97776.28;5108318;28;20111;-83
2021/11/22 09:51:38;;;;;;;45.50;22.48;;;;;;;6.38;100.00;97780.09;5109745;28;20035;-87
2021/11/22 09:54:04;;;;;;;48.53;22.98;;;;;;;6.32;100.00;97792.06;5108257;28;20056;-80
2021/11/22 09:56:32;;;;;;;43.63;21.13;;;;;;;6.33;100.00;97780.06;5107504;28;20382;-86
2021/11/22 09:58:58;;;;;;;55.42;22.83;;;;;;;6.25;100.00;97782.53;5105477;28;20501;-86
2021/11/22 10:01:24;;;;;;;40.58;22.27;;;;;;;6.22;100.00;97775.75;5100240;28;20091;-87
2021/11/22 10:04:00;;;;;;;43.95;22.63;;;;;;;6.16;100.00;97779.56;5086575;28;20021;-82
2021/11/22 10:06:26;;;;;;;51.72;25.23;;;;;;;6.19;100.00;97780.91;5083985;28;20024;-83
2021/11/22 10:08:52;;;;;;;44.42;21.05;;;;;;;6.22;100.00;97789.34;5098502;28;20032;-85
2021/11/22 10:11:17;;;;;;;48.42;22.48;;;;;;;6.15;100.00;97791.50;5102830;28;20038;-88
2021/11/22 10:13:45;;;;;;;44.47;23.50;;;;;;;6.25;100.00;97791.50;5107210;28;20032;-90
2021/11/22 10:16:11;;;;;;;46.22;22.10;;;;;;;6.02;100.00;97792.03;5112335;28;20044;-88
2021/11/22 10:18:44;;;;;;;47.17;23.17;;;;;;;5.98;100.00;97787.41;5114560;28;20066;-84
2021/11/22 10:21:14;;;;;;;42.05;22.27;;;;;;;6.09;100.00;97787.16;5111725;28;20107;-89
2021/11/22 10:23:42;;;;;;;50.53;23.63;;;;;;;6.11;100.00;97789.59;5114355;28;20040;-88
2021/11/22 10:26:14;;;;;;;47.83;22.67;;;;;;;6.03;100.00;97790.94;5116304;28;20016;-83
2021/11/22 10:28:49;;;;;;;50.78;22.95;;;;;;;6.02;100.00;97791.19;5115016;28;20032;-82
2021/11/22 10:31:26;;;;;;;55.47;23.83;;;;;;;5.89;100.00;97792.53;5133336;28;20115;-87
2021/11/22 10:33:55;;;;;;;49.78;23.02;;;;;;;5.88;100.00;97791.75;5134969;28;20015;-87
2021/11/22 10:36:23;;;;;;;45.42;21.90;;;;;;;5.87;100.00;97794.72;5131779;28;20020;-77
2021/11/22 10:38:57;;;;;;;46.90;22.23;;;;;;;5.89;100.00;97792.53;5125118;28;20008;-87
2021/11/22 10:41:33;;;;;;;49.27;23.77;;;;;;;5.87;100.00;97800.97;5112010;28;20004;-87
2021/11/22 10:44:08;;;;;;;45.42;23.08;;;;;;;5.90;100.00;97800.44;5108123;28;20032;-86
2021/11/22 10:46:42;;;;;;;52.05;23.27;;;;;;;5.78;100.00;97809.88;5106643;28;20052;-88
2021/11/22 10:49:17;;;;;;;48.40;21.20;;;;;;;5.86;100.00;97793.91;5084962;28;20032;-73
2021/11/22 10:51:48;;;;;;;43.65;22.63;;;;;;;5.89;100.00;97808.81;5088552;28;20081;-74
2021/11/22 10:54:19;;;;;;;49.58;22.50;;;;;;;5.92;100.00;97811.00;5078691;28;20055;-76
2021/11/22 10:56:47;;;;;;;50.78;22.95;;;;;;;5.78;100.00;97809.88;5072478;28;20024;-74
2021/11/22 10:59:16;;;;;;;49.88;23.73;;;;;;;5.86;100.00;97820.22;5114578;28;20024;-86
2021/11/22 11:01:52;;;;;;;45.50;23.30;;;;;;;5.70;100.00;97811.19;5113911;28;20043;-86
2021/11/22 11:04:20;;;;;;;53.92;23.67;;;;;;;5.72;100.00;97813.66;5096569;28;20016;-78
2021/11/22 11:06:59;;;;;;;50.10;23.90;;;;;;;5.68;100.00;97812.56;5094977;28;20458;-87
2021/11/22 11:09:38;;;;;;;54.60;23.23;;;;;;;5.62;100.00;97819.03;5098572;28;20119;-90
2021/11/22 11:12:16;;;;;;;47.40;23.75;;;;;;;5.73;100.00;97809.88;5094905;28;20182;-87
2021/11/22 11:14:45;;;;;;;50.40;23.17;;;;;;;5.56;100.00;97809.25;5098920;28;20048;-89
2021/11/22 11:17:35;;;;;;;46.00;21.20;;;;;;;5.79;100.00;97815.03;5097468;28;20048;-90
2021/11/22 11:20:13;;;;;;;47.88;22.85;;;;;;;5.66;100.00;97803.88;5106447;28;20020;-87